sensor_id;sensor_type;location;lat;lon;timestamp;temperature;humidity
45339;DHT22;31071;51.478;5.710;2023-11-21T00:01:23;7.30;99.90
45339;DHT22;31071;51.478;5.710;2023-11-21T00:03:49;7.30;99.90
45339;DHT22;31071;51.478;5.710;2023-11-21T00:06:15;7.30;99.90
45339;DHT22;31071;51.478;5.710;2023-11-21T00:08:41;7.40;99.90
45339;DHT22;31071;51.478;5.710;2023-11-21T00:11:07;7.30;99.90
45339;DHT22;31071;51.478;5.710;2023-11-21T00:13:33;7.40;99.90
45339;DHT22;31071;51.478;5.710;2023-11-21T00:16:00;7.40;99.90
45339;DHT22;31071;51.478;5.710;2023-11-21T00:18:26;7.40;99.90
45339;DHT22;31071;51.478;5.710;2023-11-21T00:20:55;7.80;99.90
45339;DHT22;31071;51.478;5.710;2023-11-21T00:23:24;7.50;99.90
45339;DHT22;31071;51.478;5.710;2023-11-21T00:25:50;9.00;99.90
45339;DHT22;31071;51.478;5.710;2023-11-21T00:28:19;7.50;99.90
45339;DHT22;31071;51.478;5.710;2023-11-21T00:30:45;7.50;99.90
45339;DHT22;31071;51.478;5.710;2023-11-21T00:33:14;7.50;99.90
45339;DHT22;31071;51.478;5.710;2023-11-21T00:35:40;7.60;99.90
45339;DHT22;31071;51.478;5.710;2023-11-21T00:38:06;7.60;99.90
45339;DHT22;31071;51.478;5.710;2023-11-21T00:40:33;7.60;99.90
45339;DHT22;31071;51.478;5.710;2023-11-21T00:42:59;9.70;99.90
45339;DHT22;31071;51.478;5.710;2023-11-21T00:45:26;7.60;99.90
45339;DHT22;31071;51.478;5.710;2023-11-21T00:47:52;7.60;99.90
45339;DHT22;31071;51.478;5.710;2023-11-21T00:50:17;10.00;99.90
45339;DHT22;31071;51.478;5.710;2023-11-21T00:52:44;7.60;99.90
45339;DHT22;31071;51.478;5.710;2023-11-21T00:55:11;6.90;99.90
45339;DHT22;31071;51.478;5.710;2023-11-21T00:57:37;5.80;99.90
45339;DHT22;31071;51.478;5.710;2023-11-21T01:00:03;7.40;99.90
45339;DHT22;31071;51.478;5.710;2023-11-21T01:02:33;7.50;99.90
45339;DHT22;31071;51.478;5.710;2023-11-21T01:05:01;7.40;99.90
45339;DHT22;31071;51.478;5.710;2023-11-21T01:07:26;7.70;99.90
45339;DHT22;31071;51.478;5.710;2023-11-21T01:09:53;7.40;99.90
45339;DHT22;31071;51.478;5.710;2023-11-21T01:12:18;7.40;99.90
45339;DHT22;31071;51.478;5.710;2023-11-21T01:14:44;7.30;99.90
45339;DHT22;31071;51.478;5.710;2023-11-21T01:17:13;7.30;99.90
45339;DHT22;31071;51.478;5.710;2023-11-21T01:19:38;8.40;99.90
45339;DHT22;31071;51.478;5.710;2023-11-21T01:22:04;7.30;99.90
45339;DHT22;31071;51.478;5.710;2023-11-21T01:24:30;6.60;99.90
45339;DHT22;31071;51.478;5.710;2023-11-21T01:26:56;8.40;99.90
45339;DHT22;31071;51.478;5.710;2023-11-21T01:29:21;7.20;99.90
45339;DHT22;31071;51.478;5.710;2023-11-21T01:31:47;9.30;99.90
45339;DHT22;31071;51.478;5.710;2023-11-21T01:34:13;7.20;99.90
45339;DHT22;31071;51.478;5.710;2023-11-21T01:36:39;7.20;99.90
45339;DHT22;31071;51.478;5.710;2023-11-21T01:39:05;7.50;99.90
45339;DHT22;31071;51.478;5.710;2023-11-21T01:41:36;7.20;99.90
45339;DHT22;31071;51.478;5.710;2023-11-21T01:44:02;7.10;99.90
45339;DHT22;31071;51.478;5.710;2023-11-21T01:46:28;7.30;99.90
45339;DHT22;31071;51.478;5.710;2023-11-21T01:48:54;7.20;99.90
45339;DHT22;31071;51.478;5.710;2023-11-21T01:51:20;8.40;99.90
45339;DHT22;31071;51.478;5.710;2023-11-21T01:53:46;7.30;99.90
45339;DHT22;31071;51.478;5.710;2023-11-21T01:56:13;7.30;99.90
45339;DHT22;31071;51.478;5.710;2023-11-21T01:58:40;8.40;99.90
45339;DHT22;31071;51.478;5.710;2023-11-21T02:01:06;9.50;99.90
45339;DHT22;31071;51.478;5.710;2023-11-21T02:03:32;7.30;99.90
45339;DHT22;31071;51.478;5.710;2023-11-21T02:05:58;7.20;99.90
45339;DHT22;31071;51.478;5.710;2023-11-21T02:08:24;8.90;99.90
45339;DHT22;31071;51.478;5.710;2023-11-21T02:10:49;7.30;99.90
45339;DHT22;31071;51.478;5.710;2023-11-21T02:13:15;7.30;99.90
45339;DHT22;31071;51.478;5.710;2023-11-21T02:15:41;8.90;99.90
45339;DHT22;31071;51.478;5.710;2023-11-21T02:18:08;7.30;99.90
45339;DHT22;31071;51.478;5.710;2023-11-21T02:20:35;7.20;99.90
45339;DHT22;31071;51.478;5.710;2023-11-21T02:23:04;7.20;99.90
45339;DHT22;31071;51.478;5.710;2023-11-21T02:25:32;8.60;99.90
45339;DHT22;31071;51.478;5.710;2023-11-21T02:27:59;9.40;99.90
45339;DHT22;31071;51.478;5.710;2023-11-21T02:30:26;7.30;99.90
45339;DHT22;31071;51.478;5.710;2023-11-21T02:32:58;7.40;99.90
45339;DHT22;31071;51.478;5.710;2023-11-21T02:35:27;7.30;99.90
45339;DHT22;31071;51.478;5.710;2023-11-21T02:37:53;9.60;99.90
45339;DHT22;31071;51.478;5.710;2023-11-21T02:40:19;7.20;99.90
45339;DHT22;31071;51.478;5.710;2023-11-21T02:42:50;7.70;99.90
45339;DHT22;31071;51.478;5.710;2023-11-21T02:45:28;7.20;99.90
45339;DHT22;31071;51.478;5.710;2023-11-21T02:47:54;8.40;99.90
45339;DHT22;31071;51.478;5.710;2023-11-21T02:50:22;7.20;99.90
45339;DHT22;31071;51.478;5.710;2023-11-21T02:52:48;7.30;99.90
45339;DHT22;31071;51.478;5.710;2023-11-21T02:55:14;7.30;99.90
45339;DHT22;31071;51.478;5.710;2023-11-21T02:57:40;7.30;99.90
45339;DHT22;31071;51.478;5.710;2023-11-21T03:00:06;7.30;99.90
45339;DHT22;31071;51.478;5.710;2023-11-21T03:02:33;6.50;99.90
45339;DHT22;31071;51.478;5.710;2023-11-21T03:05:05;7.20;99.90
45339;DHT22;31071;51.478;5.710;2023-11-21T03:07:31;5.10;99.90
45339;DHT22;31071;51.478;5.710;2023-11-21T03:09:57;8.50;99.90
45339;DHT22;31071;51.478;5.710;2023-11-21T03:12:23;7.10;99.90
45339;DHT22;31071;51.478;5.710;2023-11-21T03:14:49;7.10;99.90
45339;DHT22;31071;51.478;5.710;2023-11-21T03:17:33;9.20;99.90
45339;DHT22;31071;51.478;5.710;2023-11-21T03:20:02;7.00;99.90
45339;DHT22;31071;51.478;5.710;2023-11-21T03:22:29;7.10;99.90
45339;DHT22;31071;51.478;5.710;2023-11-21T03:24:55;7.00;99.90
45339;DHT22;31071;51.478;5.710;2023-11-21T03:27:21;5.00;99.90
45339;DHT22;31071;51.478;5.710;2023-11-21T03:29:47;8.20;99.90
45339;DHT22;31071;51.478;5.710;2023-11-21T03:32:13;7.10;99.90
45339;DHT22;31071;51.478;5.710;2023-11-21T03:34:56;7.00;99.90
45339;DHT22;31071;51.478;5.710;2023-11-21T03:37:23;7.10;99.90
45339;DHT22;31071;51.478;5.710;2023-11-21T03:39:50;7.00;99.90
45339;DHT22;31071;51.478;5.710;2023-11-21T03:42:16;7.20;99.90
45339;DHT22;31071;51.478;5.710;2023-11-21T03:44:42;7.00;99.90
45339;DHT22;31071;51.478;5.710;2023-11-21T03:47:08;6.90;99.90
45339;DHT22;31071;51.478;5.710;2023-11-21T03:49:34;6.90;99.90
45339;DHT22;31071;51.478;5.710;2023-11-21T03:52:00;7.00;99.90
45339;DHT22;31071;51.478;5.710;2023-11-21T03:54:26;7.00;99.90
45339;DHT22;31071;51.478;5.710;2023-11-21T03:56:51;6.80;99.90
45339;DHT22;31071;51.478;5.710;2023-11-21T03:59:17;6.90;99.90
45339;DHT22;31071;51.478;5.710;2023-11-21T04:01:43;6.30;99.90
45339;DHT22;31071;51.478;5.710;2023-11-21T04:04:09;6.90;99.90
45339;DHT22;31071;51.478;5.710;2023-11-21T04:06:38;6.10;99.90
45339;DHT22;31071;51.478;5.710;2023-11-21T04:09:03;6.90;99.90
45339;DHT22;31071;51.478;5.710;2023-11-21T04:11:32;6.70;99.90
45339;DHT22;31071;51.478;5.710;2023-11-21T04:13:59;9.10;99.90
45339;DHT22;31071;51.478;5.710;2023-11-21T04:16:24;4.80;99.90
45339;DHT22;31071;51.478;5.710;2023-11-21T04:18:51;6.90;99.90
45339;DHT22;31071;51.478;5.710;2023-11-21T04:21:16;6.80;99.90
45339;DHT22;31071;51.478;5.710;2023-11-21T04:23:42;6.40;99.90
45339;DHT22;31071;51.478;5.710;2023-11-21T04:26:08;6.50;99.90
45339;DHT22;31071;51.478;5.710;2023-11-21T04:28:34;7.90;99.90
45339;DHT22;31071;51.478;5.710;2023-11-21T04:31:00;8.20;99.90
45339;DHT22;31071;51.478;5.710;2023-11-21T04:33:25;7.50;99.90
45339;DHT22;31071;51.478;5.710;2023-11-21T04:35:51;7.50;99.90
45339;DHT22;31071;51.478;5.710;2023-11-21T04:38:17;6.80;99.90
45339;DHT22;31071;51.478;5.710;2023-11-21T04:40:44;6.80;99.90
45339;DHT22;31071;51.478;5.710;2023-11-21T04:43:11;9.40;99.90
45339;DHT22;31071;51.478;5.710;2023-11-21T04:45:37;6.80;99.90
45339;DHT22;31071;51.478;5.710;2023-11-21T04:48:03;8.70;99.90
45339;DHT22;31071;51.478;5.710;2023-11-21T04:50:29;6.30;99.90
45339;DHT22;31071;51.478;5.710;2023-11-21T04:52:55;6.80;99.90
45339;DHT22;31071;51.478;5.710;2023-11-21T04:55:21;6.80;99.90
45339;DHT22;31071;51.478;5.710;2023-11-21T04:57:47;6.80;99.90
45339;DHT22;31071;51.478;5.710;2023-11-21T05:00:13;6.80;99.90
45339;DHT22;31071;51.478;5.710;2023-11-21T05:02:40;6.40;99.90
45339;DHT22;31071;51.478;5.710;2023-11-21T05:05:07;5.20;99.90
45339;DHT22;31071;51.478;5.710;2023-11-21T05:07:33;7.80;99.90
45339;DHT22;31071;51.478;5.710;2023-11-21T05:10:00;6.60;99.90
45339;DHT22;31071;51.478;5.710;2023-11-21T05:12:31;6.70;99.90
45339;DHT22;31071;51.478;5.710;2023-11-21T05:15:08;6.70;99.90
45339;DHT22;31071;51.478;5.710;2023-11-21T05:17:37;6.70;99.90
45339;DHT22;31071;51.478;5.710;2023-11-21T05:20:07;6.70;99.90
45339;DHT22;31071;51.478;5.710;2023-11-21T05:22:34;6.70;99.90
45339;DHT22;31071;51.478;5.710;2023-11-21T05:25:00;6.70;99.90
45339;DHT22;31071;51.478;5.710;2023-11-21T05:27:26;7.70;99.90
45339;DHT22;31071;51.478;5.710;2023-11-21T05:29:52;8.20;99.90
45339;DHT22;31071;51.478;5.710;2023-11-21T05:32:18;6.70;99.90
45339;DHT22;31071;51.478;5.710;2023-11-21T05:34:43;6.60;99.90
45339;DHT22;31071;51.478;5.710;2023-11-21T05:37:09;7.10;99.90
45339;DHT22;31071;51.478;5.710;2023-11-21T05:39:35;9.10;99.90
45339;DHT22;31071;51.478;5.710;2023-11-21T05:42:01;6.80;99.90
45339;DHT22;31071;51.478;5.710;2023-11-21T05:44:27;6.80;99.90
45339;DHT22;31071;51.478;5.710;2023-11-21T05:46:53;6.70;99.90
45339;DHT22;31071;51.478;5.710;2023-11-21T05:49:18;6.70;99.90
45339;DHT22;31071;51.478;5.710;2023-11-21T05:51:47;6.70;99.90
45339;DHT22;31071;51.478;5.710;2023-11-21T05:54:13;9.20;99.90
45339;DHT22;31071;51.478;5.710;2023-11-21T05:56:38;6.70;99.90
45339;DHT22;31071;51.478;5.710;2023-11-21T05:59:04;7.90;99.90
45339;DHT22;31071;51.478;5.710;2023-11-21T06:01:31;6.70;99.90
45339;DHT22;31071;51.478;5.710;2023-11-21T06:03:58;6.80;99.90
45339;DHT22;31071;51.478;5.710;2023-11-21T06:06:26;6.80;99.90
45339;DHT22;31071;51.478;5.710;2023-11-21T06:08:52;5.50;99.90
45339;DHT22;31071;51.478;5.710;2023-11-21T06:11:18;6.90;99.90
45339;DHT22;31071;51.478;5.710;2023-11-21T06:13:44;6.80;99.90
45339;DHT22;31071;51.478;5.710;2023-11-21T06:16:10;7.30;99.90
45339;DHT22;31071;51.478;5.710;2023-11-21T06:18:38;6.70;99.90
45339;DHT22;31071;51.478;5.710;2023-11-21T06:21:04;6.70;99.90
45339;DHT22;31071;51.478;5.710;2023-11-21T06:23:30;6.80;99.90
45339;DHT22;31071;51.478;5.710;2023-11-21T06:25:56;6.70;99.90
45339;DHT22;31071;51.478;5.710;2023-11-21T06:28:29;5.50;99.90
45339;DHT22;31071;51.478;5.710;2023-11-21T06:30:54;6.80;99.90
45339;DHT22;31071;51.478;5.710;2023-11-21T06:33:20;6.80;99.90
45339;DHT22;31071;51.478;5.710;2023-11-21T06:35:47;6.90;99.90
45339;DHT22;31071;51.478;5.710;2023-11-21T06:38:13;8.00;99.90
45339;DHT22;31071;51.478;5.710;2023-11-21T06:40:38;6.80;99.90
45339;DHT22;31071;51.478;5.710;2023-11-21T06:43:04;6.90;99.90
45339;DHT22;31071;51.478;5.710;2023-11-21T06:45:33;9.40;99.90
45339;DHT22;31071;51.478;5.710;2023-11-21T06:48:02;5.30;99.90
45339;DHT22;31071;51.478;5.710;2023-11-21T06:50:28;6.80;99.90
45339;DHT22;31071;51.478;5.710;2023-11-21T06:52:54;6.90;99.90
45339;DHT22;31071;51.478;5.710;2023-11-21T06:55:19;6.90;99.90
45339;DHT22;31071;51.478;5.710;2023-11-21T06:57:49;7.00;99.90
45339;DHT22;31071;51.478;5.710;2023-11-21T07:00:18;7.00;99.90
45339;DHT22;31071;51.478;5.710;2023-11-21T07:02:53;7.00;99.90
45339;DHT22;31071;51.478;5.710;2023-11-21T07:05:21;7.00;99.90
45339;DHT22;31071;51.478;5.710;2023-11-21T07:07:47;7.00;99.90
45339;DHT22;31071;51.478;5.710;2023-11-21T07:10:16;7.00;99.90
45339;DHT22;31071;51.478;5.710;2023-11-21T07:12:42;7.10;99.90
45339;DHT22;31071;51.478;5.710;2023-11-21T07:15:28;7.00;99.90
45339;DHT22;31071;51.478;5.710;2023-11-21T07:18:04;8.70;99.90
45339;DHT22;31071;51.478;5.710;2023-11-21T07:20:33;7.10;99.90
45339;DHT22;31071;51.478;5.710;2023-11-21T07:22:59;7.20;99.90
45339;DHT22;31071;51.478;5.710;2023-11-21T07:25:25;7.10;99.90
45339;DHT22;31071;51.478;5.710;2023-11-21T07:27:51;7.20;99.90
45339;DHT22;31071;51.478;5.710;2023-11-21T07:30:33;7.20;99.90
45339;DHT22;31071;51.478;5.710;2023-11-21T07:33:03;7.20;99.90
45339;DHT22;31071;51.478;5.710;2023-11-21T07:36:18;7.20;99.90
45339;DHT22;31071;51.478;5.710;2023-11-21T07:43:07;7.30;99.90
45339;DHT22;31071;51.478;5.710;2023-11-21T07:46:02;7.30;99.90
45339;DHT22;31071;51.478;5.710;2023-11-21T07:51:30;7.30;99.90
45339;DHT22;31071;51.478;5.710;2023-11-21T07:54:28;7.30;99.90
45339;DHT22;31071;51.478;5.710;2023-11-21T07:56:54;7.40;99.90
45339;DHT22;31071;51.478;5.710;2023-11-21T07:59:19;7.20;99.90
45339;DHT22;31071;51.478;5.710;2023-11-21T08:01:45;7.30;99.90
45339;DHT22;31071;51.478;5.710;2023-11-21T08:04:11;7.50;99.90
45339;DHT22;31071;51.478;5.710;2023-11-21T08:06:38;9.80;99.90
45339;DHT22;31071;51.478;5.710;2023-11-21T08:09:10;7.40;99.90
45339;DHT22;31071;51.478;5.710;2023-11-21T08:11:41;7.40;99.90
45339;DHT22;31071;51.478;5.710;2023-11-21T08:14:07;7.40;99.90
45339;DHT22;31071;51.478;5.710;2023-11-21T08:16:33;7.40;99.90
45339;DHT22;31071;51.478;5.710;2023-11-21T08:18:59;7.40;99.90
45339;DHT22;31071;51.478;5.710;2023-11-21T08:21:24;8.20;99.90
45339;DHT22;31071;51.478;5.710;2023-11-21T08:23:51;7.60;99.90
45339;DHT22;31071;51.478;5.710;2023-11-21T08:26:20;7.40;99.90
45339;DHT22;31071;51.478;5.710;2023-11-21T08:28:46;6.60;99.90
45339;DHT22;31071;51.478;5.710;2023-11-21T08:31:12;7.50;99.90
45339;DHT22;31071;51.478;5.710;2023-11-21T08:33:47;7.50;99.90
45339;DHT22;31071;51.478;5.710;2023-11-21T08:36:13;7.50;99.90
45339;DHT22;31071;51.478;5.710;2023-11-21T08:38:39;7.70;99.90
45339;DHT22;31071;51.478;5.710;2023-11-21T08:41:06;7.70;99.90
45339;DHT22;31071;51.478;5.710;2023-11-21T08:43:38;7.50;99.90
45339;DHT22;31071;51.478;5.710;2023-11-21T08:46:07;7.60;99.90
45339;DHT22;31071;51.478;5.710;2023-11-21T08:48:38;8.40;99.90
45339;DHT22;31071;51.478;5.710;2023-11-21T08:51:13;7.70;99.90
45339;DHT22;31071;51.478;5.710;2023-11-21T08:53:41;7.70;99.90
45339;DHT22;31071;51.478;5.710;2023-11-21T08:56:07;7.70;99.90
45339;DHT22;31071;51.478;5.710;2023-11-21T08:58:34;7.80;99.90
45339;DHT22;31071;51.478;5.710;2023-11-21T09:01:02;9.40;99.90
45339;DHT22;31071;51.478;5.710;2023-11-21T09:03:28;7.80;99.90
45339;DHT22;31071;51.478;5.710;2023-11-21T09:05:54;7.80;99.90
45339;DHT22;31071;51.478;5.710;2023-11-21T09:08:19;7.80;99.90
45339;DHT22;31071;51.478;5.710;2023-11-21T09:11:07;7.80;99.90
45339;DHT22;31071;51.478;5.710;2023-11-21T09:13:44;7.80;99.90
45339;DHT22;31071;51.478;5.710;2023-11-21T09:16:41;7.90;99.90
45339;DHT22;31071;51.478;5.710;2023-11-21T09:28:45;8.00;99.90
45339;DHT22;31071;51.478;5.710;2023-11-21T09:31:14;8.00;99.90
45339;DHT22;31071;51.478;5.710;2023-11-21T09:33:43;8.00;99.90
45339;DHT22;31071;51.478;5.710;2023-11-21T09:36:16;8.10;99.90
45339;DHT22;31071;51.478;5.710;2023-11-21T09:38:44;8.20;99.90
45339;DHT22;31071;51.478;5.710;2023-11-21T09:41:31;8.20;99.90
45339;DHT22;31071;51.478;5.710;2023-11-21T09:44:05;8.20;99.90
45339;DHT22;31071;51.478;5.710;2023-11-21T09:46:57;8.30;99.90
45339;DHT22;31071;51.478;5.710;2023-11-21T09:49:31;8.40;99.90
45339;DHT22;31071;51.478;5.710;2023-11-21T09:52:02;8.40;99.90
45339;DHT22;31071;51.478;5.710;2023-11-21T09:54:31;8.40;99.90
45339;DHT22;31071;51.478;5.710;2023-11-21T09:57:04;8.40;99.90
45339;DHT22;31071;51.478;5.710;2023-11-21T09:59:57;9.70;99.90
45339;DHT22;31071;51.478;5.710;2023-11-21T10:02:26;8.50;99.90
45339;DHT22;31071;51.478;5.710;2023-11-21T10:04:56;8.60;99.90
45339;DHT22;31071;51.478;5.710;2023-11-21T10:07:25;8.60;99.90
45339;DHT22;31071;51.478;5.710;2023-11-21T10:10:10;8.60;99.90
45339;DHT22;31071;51.478;5.710;2023-11-21T10:13:10;8.60;99.90
45339;DHT22;31071;51.478;5.710;2023-11-21T10:16:20;8.70;99.90
45339;DHT22;31071;51.478;5.710;2023-11-21T10:18:53;8.70;99.90
45339;DHT22;31071;51.478;5.710;2023-11-21T10:21:26;8.70;99.90
45339;DHT22;31071;51.478;5.710;2023-11-21T10:23:59;8.80;99.90
45339;DHT22;31071;51.478;5.710;2023-11-21T10:26:48;8.80;99.90
45339;DHT22;31071;51.478;5.710;2023-11-21T10:29:16;8.90;99.90
45339;DHT22;31071;51.478;5.710;2023-11-21T10:31:49;9.00;99.90
45339;DHT22;31071;51.478;5.710;2023-11-21T10:34:19;9.00;99.90
45339;DHT22;31071;51.478;5.710;2023-11-21T10:36:55;9.10;99.90
45339;DHT22;31071;51.478;5.710;2023-11-21T10:39:33;9.10;99.90
45339;DHT22;31071;51.478;5.710;2023-11-21T10:41:58;9.10;99.90
45339;DHT22;31071;51.478;5.710;2023-11-21T10:44:25;9.90;99.90
45339;DHT22;31071;51.478;5.710;2023-11-21T10:46:54;9.10;99.90
45339;DHT22;31071;51.478;5.710;2023-11-21T10:49:29;9.90;99.90
45339;DHT22;31071;51.478;5.710;2023-11-21T10:52:01;9.10;99.90
45339;DHT22;31071;51.478;5.710;2023-11-21T10:54:40;9.10;99.90
45339;DHT22;31071;51.478;5.710;2023-11-21T10:57:06;9.10;99.90
45339;DHT22;31071;51.478;5.710;2023-11-21T10:59:33;9.10;99.90
45339;DHT22;31071;51.478;5.710;2023-11-21T11:01:58;9.20;99.90
45339;DHT22;31071;51.478;5.710;2023-11-21T11:04:27;9.20;99.90
45339;DHT22;31071;51.478;5.710;2023-11-21T11:07:08;9.40;99.90
45339;DHT22;31071;51.478;5.710;2023-11-21T11:09:37;9.20;99.90
45339;DHT22;31071;51.478;5.710;2023-11-21T11:12:33;9.20;99.90
45339;DHT22;31071;51.478;5.710;2023-11-21T11:15:25;9.30;99.90
45339;DHT22;31071;51.478;5.710;2023-11-21T11:18:16;9.30;99.90
45339;DHT22;31071;51.478;5.710;2023-11-21T11:24:13;9.20;99.90
45339;DHT22;31071;51.478;5.710;2023-11-21T11:27:11;9.30;99.90
45339;DHT22;31071;51.478;5.710;2023-11-21T11:33:50;9.50;99.90
45339;DHT22;31071;51.478;5.710;2023-11-21T11:37:18;9.40;99.90
45339;DHT22;31071;51.478;5.710;2023-11-21T11:39:40;9.40;99.90
45339;DHT22;31071;51.478;5.710;2023-11-21T11:42:19;9.50;99.90
45339;DHT22;31071;51.478;5.710;2023-11-21T11:44:53;9.50;99.90
45339;DHT22;31071;51.478;5.710;2023-11-21T11:47:31;9.50;99.90
45339;DHT22;31071;51.478;5.710;2023-11-21T11:50:10;12.20;99.90
45339;DHT22;31071;51.478;5.710;2023-11-21T11:52:43;9.60;99.90
45339;DHT22;31071;51.478;5.710;2023-11-21T11:55:14;9.60;99.90
45339;DHT22;31071;51.478;5.710;2023-11-21T11:57:42;9.60;99.90
45339;DHT22;31071;51.478;5.710;2023-11-21T12:00:21;9.50;99.90
45339;DHT22;31071;51.478;5.710;2023-11-21T12:02:52;9.60;99.90
45339;DHT22;31071;51.478;5.710;2023-11-21T12:05:20;9.60;99.90
45339;DHT22;31071;51.478;5.710;2023-11-21T12:07:53;10.70;99.90
45339;DHT22;31071;51.478;5.710;2023-11-21T12:10:22;9.90;99.90
45339;DHT22;31071;51.478;5.710;2023-11-21T12:13:00;10.00;99.90
45339;DHT22;31071;51.478;5.710;2023-11-21T12:15:32;10.00;99.90
45339;DHT22;31071;51.478;5.710;2023-11-21T12:17:58;10.00;99.90
45339;DHT22;31071;51.478;5.710;2023-11-21T12:20:25;11.40;99.90
45339;DHT22;31071;51.478;5.710;2023-11-21T12:22:56;9.90;99.90
45339;DHT22;31071;51.478;5.710;2023-11-21T12:25:25;10.70;99.90
45339;DHT22;31071;51.478;5.710;2023-11-21T12:27:55;9.90;99.90
45339;DHT22;31071;51.478;5.710;2023-11-21T12:30:23;9.80;99.90
45339;DHT22;31071;51.478;5.710;2023-11-21T12:32:51;9.80;99.90
45339;DHT22;31071;51.478;5.710;2023-11-21T12:35:18;9.70;99.90
45339;DHT22;31071;51.478;5.710;2023-11-21T12:37:48;9.70;99.90
45339;DHT22;31071;51.478;5.710;2023-11-21T12:40:15;10.80;99.90
45339;DHT22;31071;51.478;5.710;2023-11-21T12:42:42;9.70;99.90
45339;DHT22;31071;51.478;5.710;2023-11-21T12:45:19;9.70;99.90
45339;DHT22;31071;51.478;5.710;2023-11-21T12:47:58;9.70;99.90
45339;DHT22;31071;51.478;5.710;2023-11-21T12:50:30;9.80;99.90
45339;DHT22;31071;51.478;5.710;2023-11-21T12:53:08;9.80;99.90
45339;DHT22;31071;51.478;5.710;2023-11-21T12:55:35;9.80;99.90
45339;DHT22;31071;51.478;5.710;2023-11-21T12:58:08;8.50;99.90
45339;DHT22;31071;51.478;5.710;2023-11-21T13:00:46;9.90;99.90
45339;DHT22;31071;51.478;5.710;2023-11-21T13:03:18;9.90;99.90
45339;DHT22;31071;51.478;5.710;2023-11-21T13:05:51;9.90;99.90
45339;DHT22;31071;51.478;5.710;2023-11-21T13:08:20;9.90;99.90
45339;DHT22;31071;51.478;5.710;2023-11-21T13:10:49;11.50;99.90
45339;DHT22;31071;51.478;5.710;2023-11-21T13:13:18;9.90;99.90
45339;DHT22;31071;51.478;5.710;2023-11-21T13:15:53;12.20;99.90
45339;DHT22;31071;51.478;5.710;2023-11-21T13:18:26;9.90;99.90
45339;DHT22;31071;51.478;5.710;2023-11-21T13:20:54;10.00;99.90
45339;DHT22;31071;51.478;5.710;2023-11-21T13:23:20;10.00;99.90
45339;DHT22;31071;51.478;5.710;2023-11-21T13:29:38;10.00;99.90
45339;DHT22;31071;51.478;5.710;2023-11-21T13:32:22;10.00;99.90
45339;DHT22;31071;51.478;5.710;2023-11-21T13:34:54;9.10;99.90
45339;DHT22;31071;51.478;5.710;2023-11-21T13:37:23;8.50;99.90
45339;DHT22;31071;51.478;5.710;2023-11-21T13:39:56;10.00;99.90
45339;DHT22;31071;51.478;5.710;2023-11-21T13:42:23;10.00;99.90
45339;DHT22;31071;51.478;5.710;2023-11-21T13:44:57;10.90;99.90
45339;DHT22;31071;51.478;5.710;2023-11-21T13:47:23;10.60;99.90
45339;DHT22;31071;51.478;5.710;2023-11-21T13:49:55;10.10;99.90
45339;DHT22;31071;51.478;5.710;2023-11-21T13:52:20;10.00;99.90
45339;DHT22;31071;51.478;5.710;2023-11-21T13:54:50;10.00;99.90
45339;DHT22;31071;51.478;5.710;2023-11-21T14:01:28;10.00;99.90
45339;DHT22;31071;51.478;5.710;2023-11-21T14:03:53;10.00;99.90
45339;DHT22;31071;51.478;5.710;2023-11-21T14:06:25;10.00;99.90
45339;DHT22;31071;51.478;5.710;2023-11-21T14:09:00;10.10;99.90
45339;DHT22;31071;51.478;5.710;2023-11-21T14:11:30;10.10;99.90
45339;DHT22;31071;51.478;5.710;2023-11-21T14:13:56;10.10;99.90
45339;DHT22;31071;51.478;5.710;2023-11-21T14:16:31;10.00;99.90
45339;DHT22;31071;51.478;5.710;2023-11-21T14:19:05;10.00;99.90
45339;DHT22;31071;51.478;5.710;2023-11-21T14:21:41;10.00;99.90
45339;DHT22;31071;51.478;5.710;2023-11-21T14:24:11;10.00;99.90
45339;DHT22;31071;51.478;5.710;2023-11-21T14:26:44;10.00;99.90
45339;DHT22;31071;51.478;5.710;2023-11-21T14:29:12;10.00;99.90
45339;DHT22;31071;51.478;5.710;2023-11-21T14:31:40;10.10;99.90
45339;DHT22;31071;51.478;5.710;2023-11-21T14:34:07;10.10;99.90
45339;DHT22;31071;51.478;5.710;2023-11-21T14:36:33;10.00;99.90
45339;DHT22;31071;51.478;5.710;2023-11-21T14:39:00;10.00;99.90
45339;DHT22;31071;51.478;5.710;2023-11-21T14:41:25;10.00;99.90
45339;DHT22;31071;51.478;5.710;2023-11-21T14:43:53;11.00;99.90
45339;DHT22;31071;51.478;5.710;2023-11-21T14:46:20;10.00;99.90
45339;DHT22;31071;51.478;5.710;2023-11-21T14:48:46;10.00;99.90
45339;DHT22;31071;51.478;5.710;2023-11-21T14:51:25;11.60;99.90
45339;DHT22;31071;51.478;5.710;2023-11-21T14:53:53;10.10;99.90
45339;DHT22;31071;51.478;5.710;2023-11-21T14:56:20;10.10;99.90
45339;DHT22;31071;51.478;5.710;2023-11-21T14:58:57;10.10;99.90
45339;DHT22;31071;51.478;5.710;2023-11-21T15:01:25;9.90;99.90
45339;DHT22;31071;51.478;5.710;2023-11-21T15:04:12;8.70;99.90
45339;DHT22;31071;51.478;5.710;2023-11-21T15:06:47;9.90;99.90
45339;DHT22;31071;51.478;5.710;2023-11-21T15:09:13;10.50;99.90
45339;DHT22;31071;51.478;5.710;2023-11-21T15:11:39;9.90;99.90
45339;DHT22;31071;51.478;5.710;2023-11-21T15:14:08;9.80;99.90
45339;DHT22;31071;51.478;5.710;2023-11-21T15:16:38;9.80;99.90
45339;DHT22;31071;51.478;5.710;2023-11-21T15:19:11;9.70;99.90
45339;DHT22;31071;51.478;5.710;2023-11-21T15:21:44;12.30;99.90
45339;DHT22;31071;51.478;5.710;2023-11-21T15:24:11;9.70;99.90
45339;DHT22;31071;51.478;5.710;2023-11-21T15:26:37;10.50;99.90
45339;DHT22;31071;51.478;5.710;2023-11-21T15:29:11;9.70;99.90
45339;DHT22;31071;51.478;5.710;2023-11-21T15:38:18;9.60;99.90
45339;DHT22;31071;51.478;5.710;2023-11-21T15:40:43;9.90;99.90
45339;DHT22;31071;51.478;5.710;2023-11-21T15:43:11;9.60;99.90
45339;DHT22;31071;51.478;5.710;2023-11-21T15:45:38;9.60;99.90
45339;DHT22;31071;51.478;5.710;2023-11-21T15:48:05;9.60;99.90
45339;DHT22;31071;51.478;5.710;2023-11-21T15:50:31;9.60;99.90
45339;DHT22;31071;51.478;5.710;2023-11-21T15:53:00;9.60;99.90
45339;DHT22;31071;51.478;5.710;2023-11-21T15:55:29;8.40;99.90
45339;DHT22;31071;51.478;5.710;2023-11-21T15:57:54;9.60;99.90
45339;DHT22;31071;51.478;5.710;2023-11-21T16:00:20;9.50;99.90
45339;DHT22;31071;51.478;5.710;2023-11-21T16:02:48;9.50;99.90
45339;DHT22;31071;51.478;5.710;2023-11-21T16:05:14;11.10;99.90
45339;DHT22;31071;51.478;5.710;2023-11-21T16:07:40;9.60;99.90
45339;DHT22;31071;51.478;5.710;2023-11-21T16:10:10;9.50;99.90
45339;DHT22;31071;51.478;5.710;2023-11-21T16:12:45;9.50;99.90
45339;DHT22;31071;51.478;5.710;2023-11-21T16:15:13;9.50;99.90
45339;DHT22;31071;51.478;5.710;2023-11-21T16:17:39;9.40;99.90
45339;DHT22;31071;51.478;5.710;2023-11-21T16:20:07;9.70;99.90
45339;DHT22;31071;51.478;5.710;2023-11-21T16:22:59;9.40;99.90
45339;DHT22;31071;51.478;5.710;2023-11-21T16:25:25;10.00;99.90
45339;DHT22;31071;51.478;5.710;2023-11-21T16:27:51;9.30;99.90
45339;DHT22;31071;51.478;5.710;2023-11-21T16:30:17;9.30;99.90
45339;DHT22;31071;51.478;5.710;2023-11-21T16:32:43;9.30;99.90
45339;DHT22;31071;51.478;5.710;2023-11-21T16:35:12;9.30;99.90
45339;DHT22;31071;51.478;5.710;2023-11-21T16:37:39;9.30;99.90
45339;DHT22;31071;51.478;5.710;2023-11-21T16:40:05;9.80;99.90